Terminal Aerodrome Forecast
Issued by NWS

Home | Current Version | Previous Version | Graphics & Text | Print | Product List | Glossary On
Versions: 1 2 3 4 5 6 7 8 9 10 11 12 13 14 15 16 17 18 19
000
FTUS43 KDLH 241758 AAA
TAFHYR
TAF AMD
KHYR 241758Z 2418/2518 25006KT P6SM SCT025 OVC035
     FM242000 26007KT P6SM SCT035
     FM250100 VRB03KT P6SM SKC
     FM251500 26010KT P6SM SCT040=

USA.gov is the U.S. government's official web portal to all federal, state and local government web resources and services.